首页
METAR-TAF:

METAR-TAF

机场 :

里昂圣埃克絮佩里机场

里昂 / 圣·埃克苏佩里, 法国

纬度: 45-44N, 经度: 005-05E, 海拔: 248米

当前天气观测

该预报发布于18分钟前的18:30 UTC
风速4节,风向东转东南,在东转东北西南之间变化
温度 8°C
湿度 61%
气压 1030 hPa
能见度10公里或以上
1500米以下无云,无积雨云

METAR: LFLL 181830Z 11004KT 070V230 CAVOK 08/01 Q1030 NOSIG

时间: 19:48 (18:48 UTC)

预报

该预报发布于1小时和48分钟前的17:00 UTC
预报有效从18日的 18点(UTC)到 19日的 24点(UTC)
风速3节,风向多变
能见度10公里或以上
1500米以下无云,无积雨云
成为
从 18日的 18点(UTC)到 18日的 20点(UTC)
风速5节,风向南转南东
几率 40% :
短暂存在
从 19日的 06点(UTC)到 19日的 11点(UTC)
多云层高于3000英尺
小雨
从 19日的 1100点(UTC)
风速8节,风向西北
能见度10公里或以上
多云层高于2500英尺
几率 30% :
短暂存在
从 19日的 11点(UTC)到 19日的 15点(UTC)
少量云层高于2000英尺, 塔状积云.
小阵雨
成为
从 19日的 17点(UTC)到 19日的 20点(UTC)
风速5节,风向南转南东

TAF: LFLL 181700Z 1818/1924 VRB03KT CAVOK BECMG 1818/1820 16005KT PROB40 TEMPO 1906/1911 -RA BKN030 FM191100 31008KT 9999 BKN025 PROB30 TEMPO 1911/1915 -SHRA FEW020TCU BECMG 1917/1920 16005KT NSC

超过4000个机场的气象观测和天气预报(METAR&TAF报告)。

可查询的气象台以黄色和红色小点在地图上表示。

将鼠标移到小点上方,可查看气象台名称。

然后点击查看天气观测和预报。

如需切换地图:点击带黑十字的绿色按钮放大地图;点击带横线的绿色按钮缩小地图;或者点击绿色箭头查看邻近地区的地图。


METAR-TAF: